sensor_id;sensor_type;location;lat;lon;timestamp;pressure;altitude;pressure_sealevel;temperature;humidity
35291;BME280;21411;50.024;19.220;2024-03-23T00:55:59;98291.73;;;9.33;100.00
35291;BME280;21411;50.024;19.220;2024-03-23T00:58:26;98292.70;;;9.29;100.00
35291;BME280;21411;50.024;19.220;2024-03-23T01:00:52;98288.30;;;9.27;100.00
35291;BME280;21411;50.024;19.220;2024-03-23T01:03:18;98287.95;;;9.27;100.00
35291;BME280;21411;50.024;19.220;2024-03-23T01:05:45;98287.95;;;9.26;100.00
35291;BME280;21411;50.024;19.220;2024-03-23T01:08:11;98289.32;;;9.27;100.00
35291;BME280;21411;50.024;19.220;2024-03-23T01:10:37;98283.98;;;9.28;100.00
35291;BME280;21411;50.024;19.220;2024-03-23T01:13:04;98284.02;;;9.27;100.00
35291;BME280;21411;50.024;19.220;2024-03-23T01:15:30;98281.34;;;9.25;100.00
35291;BME280;21411;50.024;19.220;2024-03-23T01:17:57;98280.96;;;9.22;100.00
35291;BME280;21411;50.024;19.220;2024-03-23T01:20:23;98280.73;;;9.21;100.00
35291;BME280;21411;50.024;19.220;2024-03-23T01:22:49;98280.97;;;9.18;100.00
35291;BME280;21411;50.024;19.220;2024-03-23T01:25:16;98279.42;;;9.12;100.00
35291;BME280;21411;50.024;19.220;2024-03-23T01:27:42;98277.45;;;9.10;100.00
35291;BME280;21411;50.024;19.220;2024-03-23T01:30:08;98271.27;;;9.09;100.00
35291;BME280;21411;50.024;19.220;2024-03-23T01:32:35;98266.88;;;9.09;100.00
35291;BME280;21411;50.024;19.220;2024-03-23T01:35:01;98264.92;;;9.09;100.00
35291;BME280;21411;50.024;19.220;2024-03-23T01:37:28;98259.54;;;9.08;100.00
35291;BME280;21411;50.024;19.220;2024-03-23T01:39:54;98253.66;;;9.03;100.00
35291;BME280;21411;50.024;19.220;2024-03-23T01:42:20;98249.89;;;8.96;100.00
35291;BME280;21411;50.024;19.220;2024-03-23T01:44:47;98244.33;;;8.90;100.00
35291;BME280;21411;50.024;19.220;2024-03-23T01:47:13;98241.87;;;8.90;100.00
35291;BME280;21411;50.024;19.220;2024-03-23T01:49:39;98243.60;;;8.90;100.00
35291;BME280;21411;50.024;19.220;2024-03-23T01:52:06;98244.45;;;8.91;100.00
35291;BME280;21411;50.024;19.220;2024-03-23T01:54:32;98239.48;;;8.91;100.00
35291;BME280;21411;50.024;19.220;2024-03-23T01:56:59;98234.88;;;8.91;100.00
35291;BME280;21411;50.024;19.220;2024-03-23T01:59:26;98229.42;;;8.93;100.00
35291;BME280;21411;50.024;19.220;2024-03-23T02:01:52;98223.63;;;8.94;100.00
35291;BME280;21411;50.024;19.220;2024-03-23T02:04:18;98220.05;;;8.95;100.00
35291;BME280;21411;50.024;19.220;2024-03-23T02:06:45;98220.47;;;8.94;100.00
35291;BME280;21411;50.024;19.220;2024-03-23T02:09:11;98217.14;;;8.91;100.00
35291;BME280;21411;50.024;19.220;2024-03-23T02:11:38;98217.64;;;8.92;100.00
35291;BME280;21411;50.024;19.220;2024-03-23T02:14:04;98217.80;;;8.92;100.00
35291;BME280;21411;50.024;19.220;2024-03-23T02:16:30;98215.90;;;8.91;100.00
35291;BME280;21411;50.024;19.220;2024-03-23T02:18:57;98218.63;;;8.90;100.00
35291;BME280;21411;50.024;19.220;2024-03-23T02:21:23;98226.01;;;8.89;100.00
35291;BME280;21411;50.024;19.220;2024-03-23T02:23:49;98223.97;;;8.88;100.00
35291;BME280;21411;50.024;19.220;2024-03-23T02:26:16;98221.86;;;8.87;100.00
35291;BME280;21411;50.024;19.220;2024-03-23T02:28:43;98213.99;;;8.88;100.00
35291;BME280;21411;50.024;19.220;2024-03-23T02:31:10;98209.40;;;8.91;100.00
35291;BME280;21411;50.024;19.220;2024-03-23T02:33:37;98204.02;;;8.91;100.00
35291;BME280;21411;50.024;19.220;2024-03-23T02:36:04;98202.16;;;8.93;100.00
35291;BME280;21411;50.024;19.220;2024-03-23T02:38:30;98200.38;;;8.93;100.00
35291;BME280;21411;50.024;19.220;2024-03-23T02:41:04;98198.10;;;8.92;100.00
35291;BME280;21411;50.024;19.220;2024-03-23T02:43:31;98201.36;;;8.91;100.00
35291;BME280;21411;50.024;19.220;2024-03-23T02:45:57;98200.17;;;8.91;100.00
35291;BME280;21411;50.024;19.220;2024-03-23T02:48:23;98197.64;;;8.89;100.00
35291;BME280;21411;50.024;19.220;2024-03-23T02:50:50;98192.27;;;8.87;100.00
35291;BME280;21411;50.024;19.220;2024-03-23T02:53:17;98187.08;;;8.86;100.00
35291;BME280;21411;50.024;19.220;2024-03-23T02:55:43;98183.05;;;8.83;100.00
35291;BME280;21411;50.024;19.220;2024-03-23T02:58:09;98180.86;;;8.81;100.00
35291;BME280;21411;50.024;19.220;2024-03-23T03:00:36;98173.73;;;8.79;100.00
35291;BME280;21411;50.024;19.220;2024-03-23T03:03:02;98175.83;;;8.79;100.00
35291;BME280;21411;50.024;19.220;2024-03-23T03:05:29;98175.10;;;8.77;100.00
35291;BME280;21411;50.024;19.220;2024-03-23T03:07:56;98169.50;;;8.79;100.00
35291;BME280;21411;50.024;19.220;2024-03-23T03:10:22;98163.05;;;8.80;100.00
35291;BME280;21411;50.024;19.220;2024-03-23T03:12:48;98160.73;;;8.80;100.00
35291;BME280;21411;50.024;19.220;2024-03-23T03:15:14;98159.41;;;8.81;100.00
35291;BME280;21411;50.024;19.220;2024-03-23T03:17:41;98153.77;;;8.81;100.00
35291;BME280;21411;50.024;19.220;2024-03-23T03:20:08;98152.02;;;8.81;100.00
35291;BME280;21411;50.024;19.220;2024-03-23T03:22:39;98150.41;;;8.78;100.00
35291;BME280;21411;50.024;19.220;2024-03-23T03:25:06;98146.48;;;8.77;100.00
35291;BME280;21411;50.024;19.220;2024-03-23T03:27:33;98140.04;;;8.75;100.00
35291;BME280;21411;50.024;19.220;2024-03-23T03:30:00;98136.77;;;8.73;100.00
35291;BME280;21411;50.024;19.220;2024-03-23T03:32:32;98136.61;;;8.73;100.00
35291;BME280;21411;50.024;19.220;2024-03-23T03:34:59;98132.58;;;8.73;100.00
35291;BME280;21411;50.024;19.220;2024-03-23T03:37:25;98130.45;;;8.73;100.00
35291;BME280;21411;50.024;19.220;2024-03-23T03:39:51;98128.84;;;8.73;100.00
35291;BME280;21411;50.024;19.220;2024-03-23T03:42:18;98123.67;;;8.73;100.00
35291;BME280;21411;50.024;19.220;2024-03-23T03:44:44;98122.39;;;8.74;100.00
35291;BME280;21411;50.024;19.220;2024-03-23T03:47:10;98123.05;;;8.75;100.00
35291;BME280;21411;50.024;19.220;2024-03-23T03:49:37;98114.09;;;8.74;100.00
35291;BME280;21411;50.024;19.220;2024-03-23T03:52:03;98120.80;;;8.74;100.00
35291;BME280;21411;50.024;19.220;2024-03-23T03:54:30;98123.79;;;8.72;100.00
35291;BME280;21411;50.024;19.220;2024-03-23T03:56:56;98125.67;;;8.71;100.00
35291;BME280;21411;50.024;19.220;2024-03-23T03:59:22;98121.00;;;8.69;100.00
35291;BME280;21411;50.024;19.220;2024-03-23T04:01:49;98123.45;;;8.67;100.00
35291;BME280;21411;50.024;19.220;2024-03-23T04:04:15;98125.97;;;8.67;100.00
35291;BME280;21411;50.024;19.220;2024-03-23T04:06:43;98131.30;;;8.68;100.00
35291;BME280;21411;50.024;19.220;2024-03-23T04:09:10;98127.52;;;8.69;100.00
35291;BME280;21411;50.024;19.220;2024-03-23T04:11:36;98119.70;;;8.70;100.00
35291;BME280;21411;50.024;19.220;2024-03-23T04:14:02;98115.20;;;8.73;100.00
35291;BME280;21411;50.024;19.220;2024-03-23T04:16:33;98118.60;;;8.75;100.00
35291;BME280;21411;50.024;19.220;2024-03-23T04:19:01;98117.12;;;8.76;100.00
35291;BME280;21411;50.024;19.220;2024-03-23T04:21:27;98116.83;;;8.75;100.00
35291;BME280;21411;50.024;19.220;2024-03-23T04:23:53;98114.66;;;8.73;100.00
35291;BME280;21411;50.024;19.220;2024-03-23T04:26:20;98111.77;;;8.69;100.00
35291;BME280;21411;50.024;19.220;2024-03-23T04:28:46;98106.07;;;8.67;100.00
35291;BME280;21411;50.024;19.220;2024-03-23T04:31:12;98105.30;;;8.68;100.00
35291;BME280;21411;50.024;19.220;2024-03-23T04:33:39;98095.68;;;8.69;100.00
35291;BME280;21411;50.024;19.220;2024-03-23T04:36:05;98095.52;;;8.69;100.00
35291;BME280;21411;50.024;19.220;2024-03-23T04:38:33;98091.70;;;8.68;100.00
35291;BME280;21411;50.024;19.220;2024-03-23T04:40:59;98086.39;;;8.68;100.00
35291;BME280;21411;50.024;19.220;2024-03-23T04:43:26;98082.64;;;8.68;100.00
35291;BME280;21411;50.024;19.220;2024-03-23T04:45:52;98080.23;;;8.69;100.00
35291;BME280;21411;50.024;19.220;2024-03-23T04:48:20;98075.36;;;8.70;100.00
35291;BME280;21411;50.024;19.220;2024-03-23T04:50:49;98076.79;;;8.70;100.00
35291;BME280;21411;50.024;19.220;2024-03-23T04:53:16;98075.45;;;8.69;100.00
35291;BME280;21411;50.024;19.220;2024-03-23T04:55:43;98067.01;;;8.68;100.00
35291;BME280;21411;50.024;19.220;2024-03-23T04:58:10;98059.73;;;8.69;100.00
35291;BME280;21411;50.024;19.220;2024-03-23T05:00:36;98056.43;;;8.70;100.00
35291;BME280;21411;50.024;19.220;2024-03-23T05:03:02;98049.37;;;8.72;100.00
35291;BME280;21411;50.024;19.220;2024-03-23T05:05:30;98039.86;;;8.74;100.00
35291;BME280;21411;50.024;19.220;2024-03-23T05:07:56;98034.45;;;8.75;100.00
35291;BME280;21411;50.024;19.220;2024-03-23T05:10:23;98036.44;;;8.75;100.00
35291;BME280;21411;50.024;19.220;2024-03-23T05:12:49;98035.98;;;8.74;100.00
35291;BME280;21411;50.024;19.220;2024-03-23T05:15:16;98037.91;;;8.72;100.00
35291;BME280;21411;50.024;19.220;2024-03-23T05:17:42;98042.25;;;8.70;100.00
35291;BME280;21411;50.024;19.220;2024-03-23T05:20:08;98043.26;;;8.69;100.00
35291;BME280;21411;50.024;19.220;2024-03-23T05:22:36;98041.92;;;8.66;100.00
35291;BME280;21411;50.024;19.220;2024-03-23T05:25:02;98043.50;;;8.63;100.00
35291;BME280;21411;50.024;19.220;2024-03-23T05:27:32;98039.46;;;8.63;100.00
35291;BME280;21411;50.024;19.220;2024-03-23T05:29:59;98041.38;;;8.64;100.00
35291;BME280;21411;50.024;19.220;2024-03-23T05:32:25;98041.44;;;8.65;100.00
35291;BME280;21411;50.024;19.220;2024-03-23T05:34:51;98045.07;;;8.66;100.00
35291;BME280;21411;50.024;19.220;2024-03-23T05:37:24;98043.00;;;8.68;100.00
35291;BME280;21411;50.024;19.220;2024-03-23T05:39:51;98046.49;;;8.70;100.00
35291;BME280;21411;50.024;19.220;2024-03-23T05:42:18;98047.63;;;8.72;100.00
35291;BME280;21411;50.024;19.220;2024-03-23T05:44:46;98041.91;;;8.75;100.00
35291;BME280;21411;50.024;19.220;2024-03-23T05:47:13;98039.84;;;8.79;100.00
35291;BME280;21411;50.024;19.220;2024-03-23T05:49:40;98034.92;;;8.84;100.00
35291;BME280;21411;50.024;19.220;2024-03-23T05:52:08;98029.52;;;8.87;100.00
35291;BME280;21411;50.024;19.220;2024-03-23T05:54:35;98027.65;;;8.91;100.00
35291;BME280;21411;50.024;19.220;2024-03-23T05:57:02;98023.84;;;8.94;100.00
35291;BME280;21411;50.024;19.220;2024-03-23T05:59:29;98025.73;;;8.97;100.00
35291;BME280;21411;50.024;19.220;2024-03-23T06:01:55;98021.52;;;8.99;100.00
35291;BME280;21411;50.024;19.220;2024-03-23T06:04:22;98020.23;;;9.02;100.00
35291;BME280;21411;50.024;19.220;2024-03-23T06:06:49;98018.14;;;9.06;100.00
35291;BME280;21411;50.024;19.220;2024-03-23T06:09:15;98018.23;;;9.12;100.00
35291;BME280;21411;50.024;19.220;2024-03-23T06:11:41;98013.20;;;9.17;100.00
35291;BME280;21411;50.024;19.220;2024-03-23T06:14:08;98019.78;;;9.22;100.00
35291;BME280;21411;50.024;19.220;2024-03-23T06:16:34;98027.17;;;9.25;100.00
35291;BME280;21411;50.024;19.220;2024-03-23T06:19:01;98031.42;;;9.27;100.00
35291;BME280;21411;50.024;19.220;2024-03-23T06:21:29;98025.71;;;9.32;100.00
35291;BME280;21411;50.024;19.220;2024-03-23T06:23:56;98026.31;;;9.40;100.00
35291;BME280;21411;50.024;19.220;2024-03-23T06:26:22;98017.73;;;9.48;100.00
35291;BME280;21411;50.024;19.220;2024-03-23T06:28:49;98008.63;;;9.54;100.00
35291;BME280;21411;50.024;19.220;2024-03-23T06:31:15;98010.02;;;9.58;100.00
35291;BME280;21411;50.024;19.220;2024-03-23T06:33:41;98007.21;;;9.62;100.00
35291;BME280;21411;50.024;19.220;2024-03-23T06:36:10;98005.38;;;9.65;100.00
35291;BME280;21411;50.024;19.220;2024-03-23T06:38:37;98003.77;;;9.70;100.00
35291;BME280;21411;50.024;19.220;2024-03-23T06:41:05;98008.02;;;9.75;100.00
35291;BME280;21411;50.024;19.220;2024-03-23T06:43:31;98008.39;;;9.81;100.00
35291;BME280;21411;50.024;19.220;2024-03-23T06:45:58;98008.83;;;9.91;100.00
35291;BME280;21411;50.024;19.220;2024-03-23T06:48:24;97997.02;;;9.99;100.00
35291;BME280;21411;50.024;19.220;2024-03-23T06:50:56;97989.57;;;10.06;100.00
35291;BME280;21411;50.024;19.220;2024-03-23T06:53:23;97993.28;;;10.10;100.00
35291;BME280;21411;50.024;19.220;2024-03-23T06:55:51;97994.77;;;10.14;100.00
35291;BME280;21411;50.024;19.220;2024-03-23T06:58:23;97993.90;;;10.18;100.00
35291;BME280;21411;50.024;19.220;2024-03-23T07:00:50;97990.15;;;10.25;100.00
35291;BME280;21411;50.024;19.220;2024-03-23T07:03:17;97984.38;;;10.37;100.00
35291;BME280;21411;50.024;19.220;2024-03-23T07:05:43;97973.34;;;10.48;100.00
35291;BME280;21411;50.024;19.220;2024-03-23T07:08:10;97977.86;;;10.58;100.00
35291;BME280;21411;50.024;19.220;2024-03-23T07:10:39;97975.08;;;10.64;100.00
35291;BME280;21411;50.024;19.220;2024-03-23T07:13:05;97977.89;;;10.68;100.00
35291;BME280;21411;50.024;19.220;2024-03-23T07:15:33;97972.81;;;10.74;100.00
35291;BME280;21411;50.024;19.220;2024-03-23T07:17:59;97966.77;;;10.78;100.00
35291;BME280;21411;50.024;19.220;2024-03-23T07:20:25;97965.77;;;10.82;100.00
35291;BME280;21411;50.024;19.220;2024-03-23T07:22:52;97962.59;;;10.90;100.00
35291;BME280;21411;50.024;19.220;2024-03-23T07:25:18;97957.62;;;10.98;100.00
35291;BME280;21411;50.024;19.220;2024-03-23T07:27:45;97946.80;;;11.02;100.00
35291;BME280;21411;50.024;19.220;2024-03-23T07:30:11;97943.52;;;11.09;100.00
35291;BME280;21411;50.024;19.220;2024-03-23T07:32:37;97940.34;;;11.19;100.00
35291;BME280;21411;50.024;19.220;2024-03-23T07:35:04;97939.27;;;11.30;100.00
35291;BME280;21411;50.024;19.220;2024-03-23T07:37:30;97936.23;;;11.44;100.00
35291;BME280;21411;50.024;19.220;2024-03-23T07:39:57;97941.63;;;11.59;100.00
35291;BME280;21411;50.024;19.220;2024-03-23T07:42:24;97943.48;;;11.83;100.00
35291;BME280;21411;50.024;19.220;2024-03-23T07:44:52;97941.61;;;12.06;100.00
35291;BME280;21411;50.024;19.220;2024-03-23T07:47:21;97941.59;;;12.24;100.00
35291;BME280;21411;50.024;19.220;2024-03-23T07:49:47;97938.23;;;12.47;100.00
35291;BME280;21411;50.024;19.220;2024-03-23T07:52:15;97937.62;;;12.77;100.00
35291;BME280;21411;50.024;19.220;2024-03-23T07:54:41;97932.38;;;12.99;100.00
35291;BME280;21411;50.024;19.220;2024-03-23T07:57:08;97929.34;;;13.08;100.00
35291;BME280;21411;50.024;19.220;2024-03-23T07:59:34;97922.63;;;13.15;100.00
35291;BME280;21411;50.024;19.220;2024-03-23T08:02:00;97917.20;;;13.28;100.00
35291;BME280;21411;50.024;19.220;2024-03-23T08:04:27;97916.25;;;13.30;100.00
35291;BME280;21411;50.024;19.220;2024-03-23T08:06:53;97912.41;;;13.25;100.00
35291;BME280;21411;50.024;19.220;2024-03-23T08:09:20;97911.77;;;13.25;100.00
35291;BME280;21411;50.024;19.220;2024-03-23T08:11:47;97909.42;;;13.23;100.00
35291;BME280;21411;50.024;19.220;2024-03-23T08:14:13;97899.98;;;13.23;100.00
35291;BME280;21411;50.024;19.220;2024-03-23T08:16:39;97897.48;;;13.27;100.00
35291;BME280;21411;50.024;19.220;2024-03-23T08:19:06;97896.59;;;13.36;100.00
35291;BME280;21411;50.024;19.220;2024-03-23T08:21:34;97894.11;;;13.44;100.00
35291;BME280;21411;50.024;19.220;2024-03-23T08:24:01;97893.06;;;13.51;100.00
35291;BME280;21411;50.024;19.220;2024-03-23T08:26:27;97887.55;;;13.59;100.00
35291;BME280;21411;50.024;19.220;2024-03-23T08:28:53;97886.06;;;13.69;100.00
35291;BME280;21411;50.024;19.220;2024-03-23T08:31:20;97880.50;;;13.84;100.00
35291;BME280;21411;50.024;19.220;2024-03-23T08:33:46;97873.71;;;13.99;100.00
35291;BME280;21411;50.024;19.220;2024-03-23T08:36:13;97867.56;;;14.09;100.00
35291;BME280;21411;50.024;19.220;2024-03-23T08:38:42;97862.11;;;14.17;100.00
35291;BME280;21411;50.024;19.220;2024-03-23T08:41:10;97856.56;;;14.29;100.00
35291;BME280;21411;50.024;19.220;2024-03-23T08:43:38;97852.10;;;14.35;100.00
35291;BME280;21411;50.024;19.220;2024-03-23T08:46:10;97843.78;;;14.43;100.00
35291;BME280;21411;50.024;19.220;2024-03-23T08:48:41;97836.54;;;14.58;100.00
35291;BME280;21411;50.024;19.220;2024-03-23T08:51:10;97835.64;;;14.76;100.00
35291;BME280;21411;50.024;19.220;2024-03-23T08:53:37;97825.27;;;14.88;100.00
35291;BME280;21411;50.024;19.220;2024-03-23T08:56:05;97821.20;;;15.06;100.00
35291;BME280;21411;50.024;19.220;2024-03-23T08:58:35;97817.70;;;15.26;100.00
35291;BME280;21411;50.024;19.220;2024-03-23T09:01:13;97810.54;;;15.47;100.00
35291;BME280;21411;50.024;19.220;2024-03-23T09:03:39;97807.27;;;15.72;100.00
35291;BME280;21411;50.024;19.220;2024-03-23T09:06:10;97801.19;;;15.97;100.00
35291;BME280;21411;50.024;19.220;2024-03-23T09:08:38;97798.00;;;16.17;100.00
35291;BME280;21411;50.024;19.220;2024-03-23T09:11:08;97789.56;;;16.36;100.00
35291;BME280;21411;50.024;19.220;2024-03-23T09:13:36;97786.05;;;16.46;100.00
35291;BME280;21411;50.024;19.220;2024-03-23T09:16:02;97779.16;;;16.56;100.00
35291;BME280;21411;50.024;19.220;2024-03-23T09:18:33;97770.91;;;16.61;97.35
35291;BME280;21411;50.024;19.220;2024-03-23T09:21:00;97764.28;;;16.62;96.89
35291;BME280;21411;50.024;19.220;2024-03-23T09:23:26;97759.50;;;16.68;98.10
35291;BME280;21411;50.024;19.220;2024-03-23T09:25:52;97751.58;;;16.75;98.37
35291;BME280;21411;50.024;19.220;2024-03-23T09:28:19;97745.64;;;16.83;96.45
35291;BME280;21411;50.024;19.220;2024-03-23T09:30:46;97740.44;;;16.90;94.87
35291;BME280;21411;50.024;19.220;2024-03-23T09:33:12;97731.82;;;16.99;92.48
35291;BME280;21411;50.024;19.220;2024-03-23T09:35:40;97723.58;;;17.15;90.33
35291;BME280;21411;50.024;19.220;2024-03-23T09:38:07;97722.86;;;17.21;85.56
35291;BME280;21411;50.024;19.220;2024-03-23T09:40:42;97726.48;;;17.21;82.25
35291;BME280;21411;50.024;19.220;2024-03-23T09:43:09;97722.42;;;17.17;75.32
35291;BME280;21411;50.024;19.220;2024-03-23T09:45:39;97719.30;;;17.08;74.06
35291;BME280;21411;50.024;19.220;2024-03-23T09:48:09;97710.86;;;17.03;75.77
35291;BME280;21411;50.024;19.220;2024-03-23T09:50:39;97710.98;;;17.04;76.81
35291;BME280;21411;50.024;19.220;2024-03-23T09:53:07;97704.83;;;17.09;73.87
35291;BME280;21411;50.024;19.220;2024-03-23T09:55:34;97699.88;;;17.18;73.42
35291;BME280;21411;50.024;19.220;2024-03-23T09:58:04;97695.60;;;17.23;70.46
35291;BME280;21411;50.024;19.220;2024-03-23T10:00:35;97692.92;;;17.33;70.84
35291;BME280;21411;50.024;19.220;2024-03-23T10:03:01;97680.07;;;17.48;70.98
35291;BME280;21411;50.024;19.220;2024-03-23T10:05:29;97672.59;;;17.63;69.94
35291;BME280;21411;50.024;19.220;2024-03-23T10:07:57;97665.98;;;17.73;68.54
35291;BME280;21411;50.024;19.220;2024-03-23T10:10:27;97655.32;;;17.82;68.22
35291;BME280;21411;50.024;19.220;2024-03-23T10:12:53;97643.48;;;17.91;68.29
35291;BME280;21411;50.024;19.220;2024-03-23T10:15:22;97632.39;;;17.95;64.19
35291;BME280;21411;50.024;19.220;2024-03-23T10:17:49;97622.32;;;17.84;60.10
35291;BME280;21411;50.024;19.220;2024-03-23T10:20:20;97619.34;;;17.82;60.27
35291;BME280;21411;50.024;19.220;2024-03-23T10:22:49;97619.41;;;17.92;63.31
35291;BME280;21411;50.024;19.220;2024-03-23T10:25:16;97615.92;;;18.05;63.53
35291;BME280;21411;50.024;19.220;2024-03-23T10:27:43;97616.52;;;18.16;61.74
35291;BME280;21411;50.024;19.220;2024-03-23T10:30:14;97609.40;;;18.26;60.62
35291;BME280;21411;50.024;19.220;2024-03-23T10:32:43;97608.02;;;18.35;60.94
35291;BME280;21411;50.024;19.220;2024-03-23T10:35:19;97603.42;;;18.41;62.50
35291;BME280;21411;50.024;19.220;2024-03-23T10:37:46;97597.67;;;18.52;62.13
35291;BME280;21411;50.024;19.220;2024-03-23T10:40:13;97589.83;;;18.64;61.64
35291;BME280;21411;50.024;19.220;2024-03-23T10:42:39;97583.30;;;18.71;60.99
35291;BME280;21411;50.024;19.220;2024-03-23T10:45:07;97575.81;;;18.75;61.90
35291;BME280;21411;50.024;19.220;2024-03-23T10:47:37;97565.77;;;18.80;60.64
35291;BME280;21411;50.024;19.220;2024-03-23T10:50:04;97565.95;;;18.83;60.57
35291;BME280;21411;50.024;19.220;2024-03-23T10:52:35;97566.14;;;18.84;58.42
35291;BME280;21411;50.024;19.220;2024-03-23T10:55:04;97560.65;;;18.84;58.54
35291;BME280;21411;50.024;19.220;2024-03-23T10:57:34;97563.11;;;18.84;59.16
35291;BME280;21411;50.024;19.220;2024-03-23T11:00:04;97564.03;;;18.86;59.74
35291;BME280;21411;50.024;19.220;2024-03-23T11:02:30;97557.92;;;18.96;61.13
35291;BME280;21411;50.024;19.220;2024-03-23T11:04:57;97550.01;;;19.10;60.94
35291;BME280;21411;50.024;19.220;2024-03-23T11:09:59;97538.05;;;19.14;57.67
35291;BME280;21411;50.024;19.220;2024-03-23T11:12:27;97532.81;;;19.11;57.34
35291;BME280;21411;50.024;19.220;2024-03-23T11:15:02;97532.73;;;19.16;56.75
35291;BME280;21411;50.024;19.220;2024-03-23T11:17:30;97528.44;;;19.18;54.69
35291;BME280;21411;50.024;19.220;2024-03-23T11:20:04;97516.41;;;19.26;57.33
35291;BME280;21411;50.024;19.220;2024-03-23T11:22:46;97503.23;;;19.39;55.95
35291;BME280;21411;50.024;19.220;2024-03-23T11:25:21;97496.67;;;19.40;55.49
35291;BME280;21411;50.024;19.220;2024-03-23T11:27:49;97486.13;;;19.40;55.13
35291;BME280;21411;50.024;19.220;2024-03-23T11:30:18;97473.48;;;19.41;55.02
35291;BME280;21411;50.024;19.220;2024-03-23T11:32:45;97469.23;;;19.45;54.45
35291;BME280;21411;50.024;19.220;2024-03-23T11:35:32;97458.84;;;19.49;55.03
35291;BME280;21411;50.024;19.220;2024-03-23T11:38:10;97448.58;;;19.57;55.58
35291;BME280;21411;50.024;19.220;2024-03-23T11:40:45;97446.26;;;19.67;55.27
35291;BME280;21411;50.024;19.220;2024-03-23T11:43:18;97438.70;;;19.71;54.94
35291;BME280;21411;50.024;19.220;2024-03-23T11:45:50;97433.16;;;19.73;54.46
35291;BME280;21411;50.024;19.220;2024-03-23T11:48:22;97430.98;;;19.76;54.77
35291;BME280;21411;50.024;19.220;2024-03-23T11:50:57;97416.89;;;19.80;55.22
35291;BME280;21411;50.024;19.220;2024-03-23T11:53:25;97407.48;;;19.83;55.16
35291;BME280;21411;50.024;19.220;2024-03-23T11:55:56;97399.83;;;19.83;54.14
35291;BME280;21411;50.024;19.220;2024-03-23T11:58:24;97394.30;;;19.84;53.93
35291;BME280;21411;50.024;19.220;2024-03-23T12:01:00;97384.27;;;19.84;53.54
35291;BME280;21411;50.024;19.220;2024-03-23T12:03:31;97379.20;;;19.86;53.27
35291;BME280;21411;50.024;19.220;2024-03-23T12:06:04;97374.15;;;19.93;54.04
35291;BME280;21411;50.024;19.220;2024-03-23T12:08:32;97361.86;;;19.99;53.28
35291;BME280;21411;50.024;19.220;2024-03-23T12:11:10;97352.35;;;20.04;53.83
35291;BME280;21411;50.024;19.220;2024-03-23T12:13:38;97350.88;;;20.12;53.06
35291;BME280;21411;50.024;19.220;2024-03-23T12:16:20;97347.72;;;20.12;50.76
35291;BME280;21411;50.024;19.220;2024-03-23T12:18:48;97343.61;;;20.02;49.34
35291;BME280;21411;50.024;19.220;2024-03-23T12:21:16;97331.36;;;19.99;50.02
35291;BME280;21411;50.024;19.220;2024-03-23T12:23:45;97325.13;;;19.98;49.67
35291;BME280;21411;50.024;19.220;2024-03-23T12:26:13;97319.77;;;20.01;50.90
35291;BME280;21411;50.024;19.220;2024-03-23T12:28:39;97310.48;;;20.10;51.30
35291;BME280;21411;50.024;19.220;2024-03-23T12:31:06;97307.41;;;20.20;50.37
35291;BME280;21411;50.024;19.220;2024-03-23T12:33:32;97304.10;;;20.23;47.61
35291;BME280;21411;50.024;19.220;2024-03-23T12:35:58;97293.64;;;20.21;48.79
35291;BME280;21411;50.024;19.220;2024-03-23T12:38:25;97285.57;;;20.26;50.33
35291;BME280;21411;50.024;19.220;2024-03-23T12:40:51;97275.55;;;20.34;49.65
35291;BME280;21411;50.024;19.220;2024-03-23T12:43:18;97267.85;;;20.39;48.99
35291;BME280;21411;50.024;19.220;2024-03-23T12:45:49;97265.70;;;20.43;50.22
35291;BME280;21411;50.024;19.220;2024-03-23T12:48:16;97260.08;;;20.44;50.11
35291;BME280;21411;50.024;19.220;2024-03-23T12:50:43;97260.32;;;20.45;50.38
35291;BME280;21411;50.024;19.220;2024-03-23T12:53:09;97254.66;;;20.47;49.64
35291;BME280;21411;50.024;19.220;2024-03-23T12:55:35;97250.23;;;20.45;49.14
35291;BME280;21411;50.024;19.220;2024-03-23T12:58:02;97242.25;;;20.40;47.38
35291;BME280;21411;50.024;19.220;2024-03-23T13:00:29;97238.02;;;20.41;49.10
35291;BME280;21411;50.024;19.220;2024-03-23T13:02:55;97232.80;;;20.46;49.16
35291;BME280;21411;50.024;19.220;2024-03-23T13:05:22;97227.15;;;20.45;47.97
35291;BME280;21411;50.024;19.220;2024-03-23T13:07:48;97223.41;;;20.39;47.11
35291;BME280;21411;50.024;19.220;2024-03-23T13:10:14;97220.40;;;20.35;47.89
35291;BME280;21411;50.024;19.220;2024-03-23T13:12:42;97217.48;;;20.33;48.04
35291;BME280;21411;50.024;19.220;2024-03-23T13:15:09;97222.27;;;20.22;48.18
35291;BME280;21411;50.024;19.220;2024-03-23T13:17:35;97221.52;;;20.08;48.01
35291;BME280;21411;50.024;19.220;2024-03-23T13:20:02;97219.34;;;20.06;48.22
35291;BME280;21411;50.024;19.220;2024-03-23T13:22:29;97213.48;;;20.09;48.00
35291;BME280;21411;50.024;19.220;2024-03-23T13:24:56;97208.79;;;20.17;48.56
35291;BME280;21411;50.024;19.220;2024-03-23T13:27:22;97210.63;;;20.26;48.53
35291;BME280;21411;50.024;19.220;2024-03-23T13:29:49;97206.59;;;20.30;48.52
35291;BME280;21411;50.024;19.220;2024-03-23T13:32:16;97202.97;;;20.29;48.01
35291;BME280;21411;50.024;19.220;2024-03-23T13:34:42;97204.62;;;20.17;47.57
35291;BME280;21411;50.024;19.220;2024-03-23T13:37:09;97207.81;;;20.01;48.00
35291;BME280;21411;50.024;19.220;2024-03-23T13:39:36;97205.02;;;19.86;47.87
35291;BME280;21411;50.024;19.220;2024-03-23T13:42:02;97202.45;;;19.72;47.77
35291;BME280;21411;50.024;19.220;2024-03-23T13:44:29;97200.70;;;19.61;47.73
35291;BME280;21411;50.024;19.220;2024-03-23T13:46:56;97200.98;;;19.51;48.30